createdAt,value
2019-03-19T00:00:31.090Z,2.46
2019-03-19T00:01:31.086Z,2.51
2019-03-19T00:02:31.069Z,2.56
2019-03-19T00:03:31.068Z,2.52
2019-03-19T00:04:31.048Z,2.46
2019-03-19T00:05:31.039Z,2.46
2019-03-19T00:06:31.027Z,2.40
2019-03-19T00:07:31.016Z,2.44
2019-03-19T00:08:31.005Z,2.41
2019-03-19T00:09:31.004Z,2.45
2019-03-19T00:10:30.984Z,2.48
2019-03-19T00:11:30.991Z,2.46
2019-03-19T00:12:30.962Z,2.44
2019-03-19T00:13:30.964Z,2.49
2019-03-19T00:14:30.941Z,2.48
2019-03-19T00:15:30.945Z,2.41
2019-03-19T00:16:30.919Z,2.38
2019-03-19T00:17:30.908Z,2.37
2019-03-19T00:18:30.899Z,2.40
2019-03-19T00:19:30.892Z,2.38
2019-03-19T00:20:30.878Z,2.30
2019-03-19T00:21:30.877Z,2.35
2019-03-19T00:22:30.873Z,2.34
2019-03-19T00:23:30.852Z,2.33
2019-03-19T00:24:30.836Z,2.34
2019-03-19T00:25:30.825Z,2.28
2019-03-19T00:26:30.818Z,2.23
2019-03-19T00:27:30.818Z,2.30
2019-03-19T00:28:30.795Z,2.28
2019-03-19T00:29:30.784Z,2.19
2019-03-19T00:30:30.776Z,2.23
2019-03-19T00:31:30.764Z,2.12
2019-03-19T00:32:30.757Z,2.30
2019-03-19T00:33:30.755Z,2.22
2019-03-19T00:34:30.731Z,2.16
2019-03-19T00:35:30.721Z,2.17
2019-03-19T00:36:30.710Z,2.27
2019-03-19T00:37:30.699Z,2.16
2019-03-19T00:38:30.690Z,2.16
2019-03-19T00:39:30.692Z,2.16
2019-03-19T00:40:30.668Z,2.20
2019-03-19T00:41:30.657Z,2.13
2019-03-19T00:42:30.647Z,2.09
2019-03-19T00:43:30.635Z,2.09
2019-03-19T00:44:30.631Z,2.19
2019-03-19T00:45:30.629Z,2.23
2019-03-19T00:46:30.602Z,2.01
2019-03-19T00:47:30.601Z,2.12
2019-03-19T00:48:30.584Z,2.20
2019-03-19T00:49:30.572Z,2.12
2019-03-19T00:50:30.564Z,2.09
2019-03-19T00:51:30.563Z,2.10
2019-03-19T00:52:30.541Z,2.08
2019-03-19T00:53:30.534Z,2.12
2019-03-19T00:54:30.518Z,2.10
2019-03-19T00:55:40.279Z,2.12
2019-03-19T00:56:31.508Z,2.06
2019-03-19T00:57:30.487Z,2.08
2019-03-19T00:58:30.478Z,2.12
2019-03-19T00:59:30.467Z,2.10
2019-03-19T01:00:30.465Z,2.08
2019-03-19T01:01:30.445Z,2.04
2019-03-19T01:02:30.451Z,2.06
2019-03-19T01:03:30.426Z,2.06
2019-03-19T01:04:30.417Z,2.10
2019-03-19T01:05:30.412Z,2.09
2019-03-19T01:06:30.399Z,2.04
2019-03-19T01:07:30.385Z,2.10
2019-03-19T01:08:30.385Z,2.01
2019-03-19T01:09:30.365Z,2.10
2019-03-19T01:10:30.358Z,2.02
2019-03-19T01:11:30.344Z,2.06
2019-03-19T01:12:30.334Z,2.09
2019-03-19T01:13:30.328Z,2.09
2019-03-19T01:14:30.321Z,2.06
2019-03-19T01:15:30.301Z,2.08
2019-03-19T01:16:30.292Z,2.10
2019-03-19T01:17:30.282Z,2.10
2019-03-19T01:18:30.271Z,2.08
2019-03-19T01:19:30.260Z,2.09
2019-03-19T01:20:30.260Z,2.10
2019-03-19T01:21:30.241Z,2.04
2019-03-19T01:22:30.229Z,2.10
2019-03-19T01:23:30.235Z,2.06
2019-03-19T01:24:30.208Z,2.08
2019-03-19T01:25:30.207Z,2.01
2019-03-19T01:26:30.200Z,2.06
2019-03-19T01:27:30.177Z,2.06
2019-03-19T01:28:30.167Z,2.04
2019-03-19T01:29:30.156Z,2.09
2019-03-19T01:30:30.146Z,2.10
2019-03-19T01:31:30.138Z,2.01
2019-03-19T01:32:30.136Z,2.02
2019-03-19T01:33:30.115Z,2.09
2019-03-19T01:34:30.105Z,2.06
2019-03-19T01:35:30.095Z,2.10
2019-03-19T01:36:30.083Z,2.04
2019-03-19T01:37:30.075Z,1.89
2019-03-19T01:38:30.075Z,1.94
2019-03-19T01:39:30.052Z,1.93
2019-03-19T01:40:30.046Z,1.89
2019-03-19T01:41:30.031Z,1.97
2019-03-19T01:42:30.021Z,1.91
2019-03-19T01:43:30.014Z,1.89
2019-03-19T01:44:30.017Z,1.90
2019-03-19T01:45:29.990Z,1.89
2019-03-19T01:46:29.980Z,1.90
2019-03-19T01:47:29.976Z,1.89
2019-03-19T01:48:29.959Z,1.89
2019-03-19T01:49:29.949Z,1.90
2019-03-19T01:50:29.958Z,1.83
2019-03-19T01:51:29.929Z,1.85
2019-03-19T01:52:29.920Z,1.82
2019-03-19T01:53:29.907Z,1.79
2019-03-19T01:54:29.900Z,1.79
2019-03-19T01:55:29.888Z,1.90
2019-03-19T01:56:29.891Z,1.82
2019-03-19T01:57:29.867Z,1.83
2019-03-19T01:58:29.863Z,1.79
2019-03-19T01:59:29.863Z,1.72
2019-03-19T02:00:29.868Z,1.75
2019-03-19T02:01:29.843Z,1.78
2019-03-19T02:02:29.827Z,1.65
2019-03-19T02:03:29.807Z,1.72
2019-03-19T02:04:29.794Z,1.72
2019-03-19T02:05:29.783Z,1.72
2019-03-19T02:06:29.774Z,1.71
2019-03-19T02:07:29.765Z,1.76
2019-03-19T02:08:29.769Z,1.71
2019-03-19T02:09:29.747Z,1.78
2019-03-19T02:10:29.739Z,1.69
2019-03-19T02:11:29.721Z,1.75
2019-03-19T02:12:29.711Z,1.76
2019-03-19T02:13:29.704Z,1.72
2019-03-19T02:14:29.700Z,1.78
2019-03-19T02:15:29.679Z,1.69
2019-03-19T02:16:29.668Z,1.73
2019-03-19T02:17:29.659Z,1.78
2019-03-19T02:18:29.651Z,1.76
2019-03-19T02:19:29.638Z,1.73
2019-03-19T02:20:29.638Z,1.71
2019-03-19T02:21:29.617Z,1.73
2019-03-19T02:22:29.606Z,1.73
2019-03-19T02:23:29.596Z,1.73
2019-03-19T02:24:29.600Z,1.69
2019-03-19T02:25:29.575Z,1.72
2019-03-19T02:26:29.578Z,1.71
2019-03-19T02:27:29.568Z,1.68
2019-03-19T02:28:29.544Z,1.69
2019-03-19T02:29:29.535Z,1.73
2019-03-19T02:30:29.620Z,1.52
2019-03-19T02:31:29.512Z,1.52
2019-03-19T02:32:29.512Z,1.60
2019-03-19T02:33:29.493Z,1.60
2019-03-19T02:34:29.485Z,1.64
2019-03-19T02:35:29.471Z,1.64
2019-03-19T02:36:29.489Z,1.57
2019-03-19T02:37:29.461Z,1.57
2019-03-19T02:38:29.457Z,1.58
2019-03-19T02:39:29.433Z,1.58
2019-03-19T02:40:29.421Z,1.54
2019-03-19T02:41:29.411Z,1.51
2019-03-19T02:42:29.410Z,1.58
2019-03-19T02:43:29.398Z,1.42
2019-03-19T02:44:29.395Z,1.57
2019-03-19T02:45:29.370Z,1.42
2019-03-19T02:46:29.362Z,1.47
2019-03-19T02:47:29.348Z,1.46
2019-03-19T02:48:29.336Z,1.36
2019-03-19T02:49:29.332Z,1.34
2019-03-19T02:50:29.327Z,1.40
2019-03-19T02:51:29.309Z,1.42
2019-03-19T02:52:29.295Z,1.39
2019-03-19T02:53:29.699Z,1.40
2019-03-19T02:54:29.279Z,1.44
2019-03-19T02:55:29.264Z,1.47
2019-03-19T02:56:33.305Z,1.47
2019-03-19T02:57:29.242Z,1.57
2019-03-19T02:58:29.236Z,1.44
2019-03-19T02:59:29.223Z,1.51
2019-03-19T03:00:29.220Z,1.40
2019-03-19T03:01:29.204Z,1.47
2019-03-19T03:02:29.201Z,1.40
2019-03-19T03:03:29.185Z,1.51
2019-03-19T03:04:29.173Z,1.40
2019-03-19T03:05:29.159Z,1.34
2019-03-19T03:06:29.157Z,1.39
2019-03-19T03:07:29.139Z,1.39
2019-03-19T03:08:29.140Z,1.36
2019-03-19T03:09:29.118Z,1.40
2019-03-19T03:10:29.114Z,1.43
2019-03-19T03:11:29.101Z,1.36
2019-03-19T03:12:29.086Z,1.40
2019-03-19T03:13:29.076Z,1.34
2019-03-19T03:14:29.078Z,1.43
2019-03-19T03:15:29.071Z,1.40
2019-03-19T03:16:29.050Z,1.37
2019-03-19T03:17:29.039Z,1.39
2019-03-19T03:18:29.025Z,1.37
2019-03-19T03:19:29.013Z,1.39
2019-03-19T03:20:29.013Z,1.33
2019-03-19T03:21:28.992Z,1.36
2019-03-19T03:22:28.984Z,1.39
2019-03-19T03:23:28.973Z,1.34
2019-03-19T03:24:28.962Z,1.32
2019-03-19T03:25:28.953Z,1.25
2019-03-19T03:26:28.951Z,1.34
2019-03-19T03:27:28.934Z,1.36
2019-03-19T03:28:28.919Z,1.33
2019-03-19T03:29:28.921Z,1.37
2019-03-19T03:30:28.920Z,1.33
2019-03-19T03:31:28.889Z,1.36
2019-03-19T03:32:28.888Z,1.39
2019-03-19T03:33:28.869Z,1.43
2019-03-19T03:34:28.858Z,1.37
2019-03-19T03:35:28.846Z,1.37
2019-03-19T03:36:28.846Z,1.34
2019-03-19T03:37:28.829Z,1.36
2019-03-19T03:38:28.831Z,1.33
2019-03-19T03:39:28.820Z,1.37
2019-03-19T03:40:28.794Z,1.33
2019-03-19T03:41:28.785Z,1.34
2019-03-19T03:42:28.775Z,1.34
2019-03-19T03:43:28.764Z,1.42
2019-03-19T03:44:28.771Z,1.37
2019-03-19T03:45:28.747Z,1.43
2019-03-19T03:46:28.735Z,1.43
2019-03-19T03:47:28.723Z,1.36
2019-03-19T03:48:28.712Z,1.39
2019-03-19T03:49:28.703Z,1.36
2019-03-19T03:50:28.701Z,1.42
2019-03-19T03:51:28.695Z,1.39
2019-03-19T03:52:28.670Z,1.39
2019-03-19T03:53:28.678Z,1.37
2019-03-19T03:54:28.685Z,1.40
2019-03-19T03:55:31.091Z,1.39
2019-03-19T03:56:28.640Z,1.39
2019-03-19T03:57:28.618Z,1.34
2019-03-19T03:58:28.609Z,1.33
2019-03-19T03:59:28.598Z,1.36
2019-03-19T04:00:28.659Z,1.28
2019-03-19T04:01:28.578Z,1.34
2019-03-19T04:02:28.583Z,1.32
2019-03-19T04:03:28.575Z,1.29
2019-03-19T04:04:28.545Z,1.37
2019-03-19T04:05:28.534Z,1.29
2019-03-19T04:06:28.524Z,1.29
2019-03-19T04:07:28.514Z,1.28
2019-03-19T04:08:28.524Z,1.34
2019-03-19T04:09:28.492Z,1.29
2019-03-19T04:10:28.482Z,1.33
2019-03-19T04:11:28.476Z,1.28
2019-03-19T04:12:28.462Z,1.29
2019-03-19T04:13:28.452Z,1.32
2019-03-19T04:14:28.451Z,1.36
2019-03-19T04:15:28.431Z,1.33
2019-03-19T04:16:28.518Z,1.34
2019-03-19T04:17:28.413Z,1.28
2019-03-19T04:18:28.399Z,1.26
2019-03-19T04:19:28.389Z,1.26
2019-03-19T04:20:28.397Z,1.28
2019-03-19T04:21:28.370Z,1.33
2019-03-19T04:22:28.357Z,1.25
2019-03-19T04:23:28.347Z,1.24
2019-03-19T04:24:28.337Z,1.24
2019-03-19T04:25:28.327Z,1.29
2019-03-19T04:26:28.370Z,1.25
2019-03-19T04:27:28.304Z,1.24
2019-03-19T04:28:28.294Z,1.16
2019-03-19T04:29:28.292Z,1.08
2019-03-19T04:30:28.278Z,1.06
2019-03-19T04:31:28.264Z,1.03
2019-03-19T04:32:28.262Z,0.96
2019-03-19T04:33:28.239Z,1.00
2019-03-19T04:34:28.229Z,1.03
2019-03-19T04:35:28.224Z,1.00
2019-03-19T04:36:28.210Z,1.06
2019-03-19T04:37:28.227Z,1.00
2019-03-19T04:38:28.197Z,1.00
2019-03-19T04:39:28.176Z,1.00
2019-03-19T04:40:28.166Z,1.03
2019-03-19T04:41:28.155Z,1.04
2019-03-19T04:42:28.143Z,1.03
2019-03-19T04:43:28.133Z,0.98
2019-03-19T04:44:28.142Z,0.92
2019-03-19T04:45:28.111Z,1.04
2019-03-19T04:46:28.147Z,0.97
2019-03-19T04:47:28.091Z,1.01
2019-03-19T04:48:28.079Z,0.90
2019-03-19T04:49:28.076Z,0.92
2019-03-19T04:50:28.068Z,0.92
2019-03-19T04:51:28.050Z,0.88
2019-03-19T04:52:28.036Z,0.89
2019-03-19T04:53:28.041Z,0.94
2019-03-19T04:54:28.015Z,0.88
2019-03-19T04:55:28.004Z,0.90
2019-03-19T04:56:28.010Z,0.96
2019-03-19T04:57:27.989Z,0.83
2019-03-19T04:58:27.975Z,0.82
2019-03-19T04:59:27.961Z,0.82
2019-03-19T05:00:27.950Z,0.82
2019-03-19T05:01:27.940Z,0.86
2019-03-19T05:02:27.939Z,0.83
2019-03-19T05:03:27.918Z,0.86
2019-03-19T05:04:27.907Z,0.89
2019-03-19T05:05:27.897Z,0.79
2019-03-19T05:06:27.887Z,0.85
2019-03-19T05:07:27.880Z,0.83
2019-03-19T05:08:27.878Z,0.78
2019-03-19T05:09:27.864Z,0.80
2019-03-19T05:10:27.845Z,0.67
2019-03-19T05:11:27.833Z,0.67
2019-03-19T05:12:27.822Z,0.60
2019-03-19T05:13:27.811Z,0.58
2019-03-19T05:14:27.811Z,0.52
2019-03-19T05:15:27.792Z,0.45
2019-03-19T05:16:27.782Z,0.42
2019-03-19T05:17:27.770Z,0.52
2019-03-19T05:18:27.758Z,0.43
2019-03-19T05:19:27.748Z,0.45
2019-03-19T05:20:27.749Z,0.42
2019-03-19T05:21:27.726Z,0.58
2019-03-19T05:22:27.716Z,0.42
2019-03-19T05:23:27.705Z,0.48
2019-03-19T05:24:27.696Z,0.49
2019-03-19T05:25:27.689Z,0.48
2019-03-19T05:26:27.743Z,0.53
2019-03-19T05:27:37.078Z,0.49
2019-03-19T05:28:28.652Z,0.58
2019-03-19T05:29:27.642Z,0.61
2019-03-19T05:30:27.632Z,0.53
2019-03-19T05:31:27.620Z,0.49
2019-03-19T05:32:27.622Z,0.52
2019-03-19T05:33:27.600Z,0.58
2019-03-19T05:34:27.588Z,0.52
2019-03-19T05:35:27.586Z,0.53
2019-03-19T05:36:27.569Z,0.58
2019-03-19T05:37:27.556Z,0.51
2019-03-19T05:38:27.560Z,0.42
2019-03-19T05:39:27.536Z,0.49
2019-03-19T05:40:27.525Z,0.43
2019-03-19T05:41:27.516Z,0.48
2019-03-19T05:42:27.505Z,0.53
2019-03-19T05:43:27.494Z,0.45
2019-03-19T05:44:27.495Z,0.46
2019-03-19T05:45:27.472Z,0.58
2019-03-19T05:46:27.462Z,0.43
2019-03-19T05:47:36.835Z,0.62
2019-03-19T05:48:28.439Z,0.53
2019-03-19T05:49:27.431Z,0.57
2019-03-19T05:50:27.430Z,0.57
2019-03-19T05:51:27.409Z,0.51
2019-03-19T05:52:27.398Z,0.45
2019-03-19T05:53:27.388Z,0.57
2019-03-19T05:54:27.376Z,0.48
2019-03-19T05:55:27.366Z,0.42
2019-03-19T05:56:27.372Z,0.48
2019-03-19T05:57:27.345Z,0.51
2019-03-19T05:58:27.338Z,0.43
2019-03-19T05:59:27.325Z,0.53
2019-03-19T06:00:27.313Z,0.52
2019-03-19T06:01:27.302Z,0.52
2019-03-19T06:02:27.304Z,0.58
2019-03-19T06:03:27.281Z,0.60
2019-03-19T06:04:27.272Z,0.64
2019-03-19T06:05:27.260Z,0.57
2019-03-19T06:06:27.248Z,0.68
2019-03-19T06:07:27.255Z,0.61
2019-03-19T06:08:27.239Z,0.75
2019-03-19T06:09:27.217Z,0.85
2019-03-19T06:10:27.206Z,0.79
2019-03-19T06:11:27.200Z,0.92
2019-03-19T06:12:27.195Z,0.96
2019-03-19T06:13:27.175Z,1.01
2019-03-19T06:14:27.225Z,0.97
2019-03-19T06:15:27.155Z,0.90
2019-03-19T06:16:27.145Z,1.00
2019-03-19T06:17:27.149Z,1.03
2019-03-19T06:18:35.098Z,1.16
2019-03-19T06:19:28.123Z,1.19
2019-03-19T06:20:27.105Z,1.21
2019-03-19T06:21:27.092Z,1.32
2019-03-19T06:22:27.082Z,1.33
2019-03-19T06:23:27.070Z,1.42
2019-03-19T06:24:27.060Z,1.34
2019-03-19T06:25:27.097Z,1.40
2019-03-19T06:26:27.041Z,1.55
2019-03-19T06:27:27.028Z,1.69
2019-03-19T06:28:27.018Z,1.78
2019-03-19T06:29:27.007Z,1.73
2019-03-19T06:30:26.996Z,1.90
2019-03-19T06:31:26.995Z,1.94
2019-03-19T06:32:26.974Z,2.04
2019-03-19T06:33:26.963Z,2.09
2019-03-19T06:34:26.957Z,2.16
2019-03-19T06:35:26.944Z,2.30
2019-03-19T06:36:26.935Z,2.38
2019-03-19T06:37:26.931Z,2.44
2019-03-19T06:38:26.911Z,2.59
2019-03-19T06:39:26.901Z,2.67
2019-03-19T06:40:26.889Z,2.69
2019-03-19T06:41:26.879Z,2.81
2019-03-19T06:42:26.867Z,2.85
2019-03-19T06:43:26.869Z,2.85
2019-03-19T06:44:26.846Z,2.97
2019-03-19T06:45:26.836Z,3.06
2019-03-19T06:46:26.826Z,3.10
2019-03-19T06:47:26.815Z,3.20
2019-03-19T06:48:26.815Z,3.34
2019-03-19T06:49:26.807Z,3.42
2019-03-19T06:50:28.110Z,3.50
2019-03-19T06:51:26.771Z,3.58
2019-03-19T06:52:26.760Z,3.65
2019-03-19T06:53:26.751Z,3.79
2019-03-19T06:54:26.746Z,3.90
2019-03-19T06:55:26.742Z,4.00
2019-03-19T06:56:26.718Z,4.19
2019-03-19T06:57:26.706Z,4.32
2019-03-19T06:58:26.698Z,4.39
2019-03-19T06:59:26.686Z,4.51
2019-03-19T07:00:26.676Z,4.61
2019-03-19T07:01:26.674Z,4.67
2019-03-19T07:02:26.657Z,4.80
2019-03-19T07:03:26.648Z,4.92
2019-03-19T07:04:26.634Z,5.02
2019-03-19T07:05:26.621Z,5.07
2019-03-19T07:06:26.611Z,5.14
2019-03-19T07:07:26.610Z,5.28
2019-03-19T07:08:26.637Z,5.31
2019-03-19T07:09:26.587Z,5.28
2019-03-19T07:10:26.567Z,5.45
2019-03-19T07:11:26.559Z,5.48
2019-03-19T07:12:26.546Z,5.52
2019-03-19T07:13:26.546Z,5.63
2019-03-19T07:14:26.524Z,5.71
2019-03-19T07:15:26.512Z,5.89
2019-03-19T07:16:26.502Z,5.98
2019-03-19T07:17:26.492Z,5.96
2019-03-19T07:18:26.483Z,6.10
2019-03-19T07:19:26.482Z,6.19
2019-03-19T07:20:26.466Z,6.19
2019-03-19T07:21:26.454Z,6.41
2019-03-19T07:22:26.437Z,6.56
2019-03-19T07:23:26.426Z,6.54
2019-03-19T07:24:26.421Z,6.53
2019-03-19T07:25:26.421Z,6.61
2019-03-19T07:26:26.396Z,6.65
2019-03-19T07:27:26.382Z,6.80
2019-03-19T07:28:26.373Z,6.79
2019-03-19T07:29:26.361Z,6.94
2019-03-19T07:30:26.353Z,6.98
2019-03-19T07:31:30.835Z,6.95
2019-03-19T07:32:26.328Z,7.08
2019-03-19T07:33:26.318Z,7.08
2019-03-19T07:34:26.310Z,7.17
2019-03-19T07:35:26.297Z,7.17
2019-03-19T07:36:26.284Z,7.26
2019-03-19T07:37:26.284Z,7.27
2019-03-19T07:38:26.262Z,7.42
2019-03-19T07:39:26.252Z,7.41
2019-03-19T07:40:26.248Z,7.53
2019-03-19T07:41:26.233Z,7.56
2019-03-19T07:42:26.219Z,7.63
2019-03-19T07:43:26.232Z,7.72
2019-03-19T07:44:26.198Z,7.78
2019-03-19T07:45:26.193Z,7.84
2019-03-19T07:46:26.174Z,7.92
2019-03-19T07:47:26.167Z,7.84
2019-03-19T07:48:26.155Z,7.94
2019-03-19T07:49:26.152Z,7.97
2019-03-19T07:50:26.131Z,8.14
2019-03-19T07:51:26.120Z,8.29
2019-03-19T07:52:26.108Z,8.33
2019-03-19T07:53:26.099Z,8.39
2019-03-19T07:54:26.086Z,8.42
2019-03-19T07:55:26.086Z,8.44
2019-03-19T07:56:26.068Z,8.37
2019-03-19T07:57:26.054Z,8.35
2019-03-19T07:58:35.724Z,8.42
2019-03-19T07:59:27.032Z,8.44
2019-03-19T08:00:26.021Z,8.33
2019-03-19T08:01:26.022Z,8.39
2019-03-19T08:02:26.001Z,8.39
2019-03-19T08:03:25.988Z,8.40
2019-03-19T08:04:25.981Z,8.42
2019-03-19T08:05:33.102Z,8.47
2019-03-19T08:06:26.968Z,8.50
2019-03-19T08:07:25.944Z,8.54
2019-03-19T08:08:25.933Z,8.58
2019-03-19T08:09:25.974Z,8.60
2019-03-19T08:10:25.915Z,8.62
2019-03-19T08:11:25.909Z,8.79
2019-03-19T08:12:25.901Z,8.78
2019-03-19T08:13:25.884Z,8.84
2019-03-19T08:14:25.867Z,8.72
2019-03-19T08:15:25.859Z,8.83
2019-03-19T08:16:27.617Z,8.90
2019-03-19T08:17:25.837Z,9.10
2019-03-19T08:18:25.877Z,9.20
2019-03-19T08:19:25.819Z,9.15
2019-03-19T08:20:25.802Z,9.27
2019-03-19T08:21:25.793Z,9.31
2019-03-19T08:22:25.780Z,9.23
2019-03-19T08:23:25.771Z,9.23
2019-03-19T08:24:25.776Z,9.24
2019-03-19T08:25:25.748Z,9.23
2019-03-19T08:26:25.736Z,9.28
2019-03-19T08:27:25.725Z,9.27
2019-03-19T08:28:25.714Z,9.24
2019-03-19T08:29:25.704Z,9.21
2019-03-19T08:30:25.705Z,9.20
2019-03-19T08:31:25.681Z,9.25
2019-03-19T08:32:25.671Z,9.24
2019-03-19T08:33:25.660Z,9.27
2019-03-19T08:34:25.653Z,9.35
2019-03-19T08:35:25.639Z,9.39
2019-03-19T08:36:25.638Z,9.61
2019-03-19T08:37:25.619Z,9.58
2019-03-19T08:38:26.534Z,9.57
2019-03-19T08:39:25.623Z,9.58
2019-03-19T08:40:25.585Z,9.61
2019-03-19T08:41:25.574Z,9.58
2019-03-19T08:42:25.574Z,9.61
2019-03-19T08:43:25.568Z,9.71
2019-03-19T08:44:27.970Z,9.79
2019-03-19T08:45:25.531Z,9.82
2019-03-19T08:46:25.524Z,9.85
2019-03-19T08:47:25.511Z,9.91
2019-03-19T08:48:25.516Z,9.97
2019-03-19T08:49:25.489Z,10.01
2019-03-19T08:50:25.480Z,10.01
2019-03-19T08:51:25.466Z,9.89
2019-03-19T08:52:25.456Z,9.81
2019-03-19T08:53:25.445Z,9.85
2019-03-19T08:54:25.459Z,9.89
2019-03-19T08:55:25.461Z,9.86
2019-03-19T08:56:25.413Z,10.03
2019-03-19T08:57:25.402Z,9.93
2019-03-19T08:58:25.391Z,9.93
2019-03-19T08:59:25.403Z,10.03
2019-03-19T09:00:25.382Z,9.99
2019-03-19T09:01:25.359Z,9.99
2019-03-19T09:02:25.347Z,9.94
2019-03-19T09:03:25.338Z,10.00
2019-03-19T09:04:25.326Z,9.97
2019-03-19T09:05:25.317Z,10.00
2019-03-19T09:06:25.315Z,10.00
2019-03-19T09:07:25.293Z,10.06
2019-03-19T09:08:25.285Z,10.04
2019-03-19T09:09:25.273Z,10.07
2019-03-19T09:10:25.260Z,9.94
2019-03-19T09:11:25.250Z,10.01
2019-03-19T09:12:25.251Z,10.04
2019-03-19T09:13:25.228Z,10.09
2019-03-19T09:14:25.217Z,10.15
2019-03-19T09:15:25.212Z,10.12
2019-03-19T09:16:25.196Z,10.07
2019-03-19T09:17:25.186Z,10.17
2019-03-19T09:18:25.184Z,10.07
2019-03-19T09:19:25.163Z,10.07
2019-03-19T09:20:25.154Z,10.06
2019-03-19T09:21:25.142Z,10.07
2019-03-19T09:22:29.607Z,9.93
2019-03-19T09:23:25.120Z,9.91
2019-03-19T09:24:25.126Z,9.79
2019-03-19T09:25:25.099Z,9.70
2019-03-19T09:26:25.089Z,9.45
2019-03-19T09:27:25.077Z,9.45
2019-03-19T09:28:25.067Z,9.50
2019-03-19T09:29:25.523Z,9.38
2019-03-19T09:30:25.055Z,9.58
2019-03-19T09:31:25.034Z,9.71
2019-03-19T09:32:25.023Z,9.81
2019-03-19T09:33:25.037Z,9.96
2019-03-19T09:34:25.007Z,10.21
2019-03-19T09:35:26.312Z,10.18
2019-03-19T09:36:25.009Z,10.17
2019-03-19T09:37:24.967Z,10.10
2019-03-19T09:38:24.958Z,10.14
2019-03-19T09:39:24.959Z,10.12
2019-03-19T09:40:24.934Z,9.97
2019-03-19T09:41:24.923Z,10.07
2019-03-19T09:42:24.934Z,9.93
2019-03-19T09:43:24.901Z,9.99
2019-03-19T09:44:24.890Z,10.04
2019-03-19T09:45:24.880Z,10.17
2019-03-19T09:46:24.868Z,10.07
2019-03-19T09:47:24.859Z,10.19
2019-03-19T09:48:24.859Z,10.30
2019-03-19T09:49:24.883Z,10.37
2019-03-19T09:50:24.830Z,10.58
2019-03-19T09:51:24.812Z,10.55
2019-03-19T09:52:24.801Z,10.56
2019-03-19T09:53:24.791Z,10.43
2019-03-19T09:54:24.790Z,10.22
2019-03-19T09:55:24.774Z,10.01
2019-03-19T09:56:24.760Z,9.82
2019-03-19T09:57:24.747Z,9.76
2019-03-19T09:58:24.740Z,9.56
2019-03-19T09:59:27.309Z,9.49
2019-03-19T10:00:24.724Z,9.35
2019-03-19T10:01:24.703Z,9.23
2019-03-19T10:02:24.693Z,9.16
2019-03-19T10:03:24.681Z,8.96
2019-03-19T10:04:24.671Z,8.83
2019-03-19T10:05:24.660Z,8.79
2019-03-19T10:06:24.659Z,8.66
2019-03-19T10:07:24.638Z,8.68
2019-03-19T10:08:24.630Z,8.72
2019-03-19T10:09:24.617Z,8.79
2019-03-19T10:10:24.648Z,8.78
2019-03-19T10:11:24.595Z,8.97
2019-03-19T10:12:24.597Z,9.13
2019-03-19T10:13:24.573Z,9.20
2019-03-19T10:14:24.563Z,9.49
2019-03-19T10:15:24.555Z,9.61
2019-03-19T10:16:24.544Z,9.75
2019-03-19T10:17:24.536Z,9.93
2019-03-19T10:18:24.529Z,10.06
2019-03-19T10:19:24.507Z,10.22
2019-03-19T10:20:24.497Z,10.24
2019-03-19T10:21:24.487Z,10.28
2019-03-19T10:22:24.483Z,10.18
2019-03-19T10:23:24.464Z,10.10
2019-03-19T10:24:24.464Z,10.12
2019-03-19T10:25:24.443Z,10.00
2019-03-19T10:26:24.436Z,9.99
2019-03-19T10:27:24.422Z,9.93
2019-03-19T10:28:24.409Z,10.00
2019-03-19T10:29:24.399Z,10.03
2019-03-19T10:30:24.412Z,9.96
2019-03-19T10:31:24.377Z,9.83
2019-03-19T10:32:24.365Z,9.85
2019-03-19T10:33:24.357Z,9.63
2019-03-19T10:34:24.346Z,9.71
2019-03-19T10:35:24.333Z,9.68
2019-03-19T10:36:24.334Z,9.76
2019-03-19T10:37:24.313Z,9.73
2019-03-19T10:38:24.303Z,9.73
2019-03-19T10:39:24.290Z,9.70
2019-03-19T10:40:24.283Z,9.75
2019-03-19T10:41:24.269Z,9.78
2019-03-19T10:42:24.271Z,9.71
2019-03-19T10:43:24.250Z,9.66
2019-03-19T10:44:24.237Z,9.70
2019-03-19T10:45:24.230Z,9.66
2019-03-19T10:46:24.214Z,9.70
2019-03-19T10:47:24.204Z,9.71
2019-03-19T10:48:24.211Z,9.82
2019-03-19T10:49:24.183Z,9.73
2019-03-19T10:50:24.175Z,9.71
2019-03-19T10:51:24.160Z,9.71
2019-03-19T10:52:24.148Z,9.57
2019-03-19T10:53:24.137Z,9.58
2019-03-19T10:54:24.140Z,9.58
2019-03-19T10:55:24.115Z,9.58
2019-03-19T10:56:24.103Z,9.46
2019-03-19T10:57:24.093Z,9.42
2019-03-19T10:58:24.083Z,9.42
2019-03-19T10:59:24.071Z,9.42
2019-03-19T11:00:24.069Z,9.49
2019-03-19T11:01:24.048Z,9.46
2019-03-19T11:02:24.037Z,9.49
2019-03-19T11:03:24.026Z,9.60
2019-03-19T11:04:24.015Z,9.50
2019-03-19T11:05:24.004Z,9.66
2019-03-19T11:06:24.008Z,9.43
2019-03-19T11:07:23.983Z,9.57
2019-03-19T11:08:23.974Z,9.45
2019-03-19T11:09:23.963Z,9.57
2019-03-19T11:10:23.952Z,9.46
2019-03-19T11:11:23.941Z,9.53
2019-03-19T11:12:23.940Z,9.52
2019-03-19T11:13:23.918Z,9.58
2019-03-19T11:14:23.908Z,9.56
2019-03-19T11:15:23.900Z,9.58
2019-03-19T11:16:23.890Z,9.60
2019-03-19T11:17:23.875Z,9.67
2019-03-19T11:18:23.888Z,9.48
2019-03-19T11:19:23.855Z,9.45
2019-03-19T11:20:23.846Z,9.40
2019-03-19T11:21:23.833Z,9.28
2019-03-19T11:22:23.822Z,9.20
2019-03-19T11:23:23.810Z,8.88
2019-03-19T11:24:23.812Z,8.72
2019-03-19T11:25:23.791Z,8.54
2019-03-19T11:26:23.778Z,8.63
2019-03-19T11:27:23.783Z,8.65
2019-03-19T11:28:23.764Z,8.87
2019-03-19T11:29:23.744Z,8.88
2019-03-19T11:30:23.750Z,8.88
2019-03-19T11:31:23.722Z,8.94
2019-03-19T11:32:23.711Z,9.12
2019-03-19T11:33:23.701Z,9.16
2019-03-19T11:34:23.689Z,9.15
2019-03-19T11:35:23.678Z,9.24
2019-03-19T11:36:23.678Z,9.18
2019-03-19T11:37:23.657Z,9.35
2019-03-19T11:38:23.648Z,9.46
2019-03-19T11:39:23.635Z,9.46
2019-03-19T11:40:25.773Z,9.58
2019-03-19T11:41:23.614Z,9.56
2019-03-19T11:42:23.616Z,9.56
2019-03-19T11:43:23.599Z,9.60
2019-03-19T11:44:23.580Z,9.68
2019-03-19T11:45:23.570Z,9.73
2019-03-19T11:46:23.558Z,9.73
2019-03-19T11:47:23.548Z,9.88
2019-03-19T11:48:23.557Z,9.86
2019-03-19T11:49:23.526Z,9.94
2019-03-19T11:50:23.516Z,9.99
2019-03-19T11:51:23.503Z,10.03
2019-03-19T11:52:23.493Z,10.07
2019-03-19T11:53:23.482Z,10.10
2019-03-19T11:54:23.481Z,10.15
2019-03-19T11:55:23.463Z,10.12
2019-03-19T11:56:23.455Z,10.07
2019-03-19T11:57:23.441Z,10.09
2019-03-19T11:58:23.427Z,10.12
2019-03-19T11:59:23.417Z,10.14
2019-03-19T12:00:23.416Z,10.07
2019-03-19T12:01:23.396Z,10.01
2019-03-19T12:02:26.119Z,10.15
2019-03-19T12:03:23.374Z,10.24
2019-03-19T12:04:23.369Z,10.33
2019-03-19T12:05:23.353Z,10.33
2019-03-19T12:06:23.353Z,10.43
2019-03-19T12:07:23.331Z,10.46
2019-03-19T12:08:23.319Z,10.56
2019-03-19T12:09:23.308Z,10.52
2019-03-19T12:10:23.298Z,10.46
2019-03-19T12:11:23.287Z,10.51
2019-03-19T12:12:23.326Z,10.40
2019-03-19T12:13:23.264Z,10.36
2019-03-19T12:14:23.253Z,10.36
2019-03-19T12:15:23.242Z,10.39
2019-03-19T12:16:23.231Z,10.51
2019-03-19T12:17:23.220Z,10.58
2019-03-19T12:18:23.223Z,10.52
2019-03-19T12:19:23.198Z,10.56
2019-03-19T12:20:23.192Z,10.66
2019-03-19T12:21:23.177Z,10.80
2019-03-19T12:22:23.170Z,10.80
2019-03-19T12:23:23.175Z,10.81
2019-03-19T12:24:23.162Z,10.88
2019-03-19T12:25:23.131Z,10.92
2019-03-19T12:26:23.121Z,10.99
2019-03-19T12:27:23.112Z,10.91
2019-03-19T12:28:23.099Z,10.95
2019-03-19T12:29:23.089Z,10.91
2019-03-19T12:30:26.138Z,10.92
2019-03-19T12:31:23.066Z,10.84
2019-03-19T12:32:23.056Z,10.91
2019-03-19T12:33:23.059Z,10.74
2019-03-19T12:34:23.033Z,10.74
2019-03-19T12:35:23.026Z,10.71
2019-03-19T12:36:23.026Z,10.60
2019-03-19T12:37:23.012Z,10.55
2019-03-19T12:38:22.990Z,10.56
2019-03-19T12:39:22.979Z,10.58
2019-03-19T12:40:22.968Z,10.59
2019-03-19T12:41:22.957Z,10.46
2019-03-19T12:42:22.957Z,10.40
2019-03-19T12:43:22.936Z,10.43
2019-03-19T12:44:22.923Z,10.51
2019-03-19T12:45:22.913Z,10.47
2019-03-19T12:46:22.901Z,10.47
2019-03-19T12:47:22.890Z,10.62
2019-03-19T12:48:22.893Z,10.65
2019-03-19T12:49:22.868Z,10.63
2019-03-19T12:50:22.858Z,10.66
2019-03-19T12:51:22.846Z,10.66
2019-03-19T12:52:22.837Z,10.60
2019-03-19T12:53:22.824Z,10.51
2019-03-19T12:54:22.826Z,10.43
2019-03-19T12:55:22.804Z,10.42
2019-03-19T12:56:22.793Z,10.37
2019-03-19T12:57:22.782Z,10.37
2019-03-19T12:58:22.774Z,10.36
2019-03-19T12:59:22.760Z,10.43
2019-03-19T13:00:33.496Z,10.46
2019-03-19T13:01:23.876Z,10.55
2019-03-19T13:02:22.728Z,10.58
2019-03-19T13:03:22.717Z,10.68
2019-03-19T13:04:22.707Z,10.78
2019-03-19T13:05:22.872Z,10.71
2019-03-19T13:06:22.694Z,10.83
2019-03-19T13:07:22.673Z,10.84
2019-03-19T13:08:22.712Z,10.95
2019-03-19T13:09:22.652Z,10.91
2019-03-19T13:10:22.642Z,10.88
2019-03-19T13:11:22.629Z,10.78
2019-03-19T13:12:22.628Z,10.71
2019-03-19T13:13:22.607Z,10.62
2019-03-19T13:14:22.599Z,10.59